Fairchance, PA (15436)

2:21 AM EDT on August 29, 2014 (GMT -0400)
Fairchance/Cheat Lake | Change Station
CLOSE
Current Station
Personal Weather Station
Location: Morgantown, WV
Elevation: 1080 ft
Nearby Weather Stations

Elev 1080 ft 39.72 °N, 79.81 °W | Updated 1 second ago

Clear
Clear
51.6 °F
Feels Like 51.6 °F
N
0.0
Wind Variable Wind from West
Gusts 0.0 mph

Today
High -- | Low -- °F
--% Chance of Precip.
Yesterday
High -- | Low -- °F
Precip. -- in
6:44 AM 7:54 PM
Waxing Crescent, 12% visible
Pressure 30.14 in
Visibility 10.0 miles
Clouds Clear
Dew Point 51 °F
Humidity 97%
Rainfall 0.00 in
Snow Depth Not available.
UV 0 out of 12
Pollen 10.00 out of 12
Air Quality Not available.
Flu Activity Not available.
METAR KMGW 290553Z AUTO 00000KT 10SM CLR 15/12 A3016 RMK AO2 SLP206 T01500122 10206 20144 58002 TSNO

More Conditions Fewer Conditions

Pressure 30.14 in
Visibility 10.0 miles
Clouds Clear
Dew Point 51 °F
Humidity 97%
Rainfall 0.00 in
Snow Depth Not available.
UV 0 out of 12
Pollen 10.00 out of 12
Air Quality Not available.
Flu Activity Not available.
METAR KMGW 290553Z AUTO 00000KT 10SM CLR 15/12 A3016 RMK AO2 SLP206 T01500122 10206 20144 58002 TSNO

More Conditions Fewer Conditions

10-Day Weather Forecast

Almanac

Astronomy

Aug. 29, 2014 Rise Set
Actual Time 6:44 AM EDT 7:54 PM EDT
Civil Twilight 6:16 AM EDT 8:22 PM EDT
Nautical Twilight 5:42 AM EDT 8:55 PM EDT
Astronomical Twilight 5:07 AM EDT 9:30 PM EDT
Moon 10:31 AM EDT 9:52 PM EDT
Length of Visible Light 14h 06m
Length of Day
13h 10m
Tomorrow will be 2m 28s shorter.
Waxing Crescent, 12% of the Moon is Illuminated
Today
Waxing Crescent
Sep 2
First Quarter
Sep 8
Full
Sep 15
Last Quarter
Sep 24
New

Today's Extremes

State Highs State Lows

Community

WunderPhotos

Upload Photos

1,748,197 photos uploaded!

Nearby

Snow Depth

Station Depth Elevation
No new snow has been reported.

Earthquake Activity

City Distance Mag. Time & Date
No recent earthquake activity has been reported nearby.
Minimum magnitude displayed is 2.5.

Coastal Water Temperatures

Place Temperature
No Stations Reporting

Nearby Weather Stations